Terminal Aerodrome Forecast
Issued by NWS

Home | Current Version | Previous Version | Text Only | Print | Product List | Glossary On
Versions: 1 2 3 4 5 6 7 8 9 10 11 12 13 14 15 16 17 18 19 20 21 22 23 24 25 26 27 28 29 30 31 32 33
000
FTUS46 KOTX 020334 AAC
TAFPUW
TAF AMD
KPUW 020334Z 0204/0224 09012KT 5SM -RA BKN035 OVC070
     FM020500 24013KT 3SM -RA OVC025
     FM020700 23010KT P6SM VCSH SCT030 BKN070 OVC150
     FM021300 24010G16KT P6SM BKN100
     FM021800 24010G16KT P6SM VCSH SCT050 BKN080 OVC100=

USA.gov is the U.S. government's official web portal to all federal, state and local government web resources and services.